| time (UTC) | temp C | wind direction | speed KPH | gust KPH | rain 1hr cm | rain 24hr cm | rain mn cm | humidity % | barometer mb |
| 20260507064853 | 12 | 160 | 11.3 | 0.0 | 0.00 | 0.00 | 0.00 | 77 | 1017.0 |
| 20260507063353 | 12 | 160 | 11.3 | 0.0 | 0.00 | 0.00 | 0.00 | 77 | 1017.0 |
| 20260507061903 | 12 | 160 | 11.3 | 0.0 | 0.00 | 0.00 | 0.00 | 77 | 1017.0 |
| 20260507060354 | 12 | 160 | 11.3 | 0.0 | 0.00 | 0.00 | 0.00 | 77 | 1017.0 |
| 20260507054853 | 10 | 160 | 11.3 | 0.0 | 0.00 | 0.00 | 0.00 | 88 | 1017.0 |
| 20260507053401 | 10 | 160 | 11.3 | 0.0 | 0.00 | 0.00 | 0.00 | 88 | 1017.0 |
| 20260507051854 | 10 | 160 | 11.3 | 0.0 | 0.00 | 0.00 | 0.00 | 88 | 1017.0 |
| 20260507050353 | -17 | 0.0 | 0.0 | 0.00 | 0.00 | 0.00 | |||
| 20260507044847 | 7 | 180 | 8.0 | 0.0 | 0.00 | 0.00 | 0.00 | 100 | 1016.0 |
| 20260507043353 | 7 | 180 | 8.0 | 0.0 | 0.00 | 0.00 | 0.00 | 100 | 1016.0 |
| 20260507041854 | 7 | 180 | 8.0 | 0.0 | 0.00 | 0.00 | 0.00 | 100 | 1016.0 |
| 20260507040353 | 7 | 180 | 8.0 | 0.0 | 0.00 | 0.00 | 0.00 | 100 | 1016.0 |
| 20260507034850 | 5 | 190 | 8.0 | 0.0 | 0.00 | 0.00 | 0.00 | 93 | 1016.0 |
| 20260507033353 | 5 | 190 | 8.0 | 0.0 | 0.00 | 0.00 | 0.00 | 93 | 1016.0 |
| 20260507031850 | 5 | 190 | 8.0 | 0.0 | 0.00 | 0.00 | 0.00 | 93 | 1016.0 |
| 20260507030353 | 5 | 190 | 8.0 | 0.0 | 0.00 | 0.00 | 0.00 | 93 | 1016.0 |
| 20260507024850 | 7 | 4.8 | 0.0 | 0.00 | 0.00 | 0.00 | 93 | 1017.0 | |
| 20260507023353 | 7 | 4.8 | 0.0 | 0.00 | 0.00 | 0.00 | 93 | 1017.0 | |
| 20260507021854 | -17 | 0.0 | 0.0 | 0.00 | 0.00 | 0.00 | |||
| 20260507020353 | -17 | 0.0 | 0.0 | 0.00 | 0.00 | 0.00 | |||
| 20260507014853 | 7 | 4.8 | 0.0 | 0.00 | 0.00 | 0.00 | 93 | 1017.0 | |
| 20260507013353 | 7 | 4.8 | 0.0 | 0.00 | 0.00 | 0.00 | 93 | 1017.0 | |
| 20260507011853 | 7 | 4.8 | 0.0 | 0.00 | 0.00 | 0.00 | 93 | 1017.0 | |
| 20260507010354 | 7 | 4.8 | 0.0 | 0.00 | 0.00 | 0.00 | 93 | 1017.0 | |
| 20260507004853 | 7 | 4.8 | 0.0 | 0.00 | 0.00 | 0.00 | 93 | 1017.0 | |
| 20260507003354 | 8 | 4.8 | 0.0 | 0.00 | 0.00 | 0.00 | 87 | 1017.0 | |
| 20260507001853 | 8 | 4.8 | 0.0 | 0.00 | 0.00 | 0.00 | 87 | 1017.0 | |
| 20260507000353 | 8 | 4.8 | 0.0 | 0.00 | 0.00 | 0.00 | 87 | 1017.0 | |
| 20260506234853 | 10 | 4.8 | 0.0 | 0.00 | 0.00 | 0.00 | 82 | 1016.0 | |
| 20260506233353 | 10 | 4.8 | 0.0 | 0.00 | 0.00 | 0.00 | 82 | 1016.0 | |
| 20260506231851 | 10 | 4.8 | 0.0 | 0.00 | 0.00 | 0.00 | 82 | 1016.0 | |
| 20260506230353 | 10 | 4.8 | 0.0 | 0.00 | 0.00 | 0.00 | 82 | 1016.0 | |
| 20260506224850 | 11 | 4.8 | 0.0 | 0.00 | 0.00 | 0.00 | 82 | 1016.0 | |
| 20260506223353 | 11 | 4.8 | 0.0 | 0.00 | 0.00 | 0.00 | 82 | 1016.0 | |
| 20260506221853 | 11 | 4.8 | 0.0 | 0.00 | 0.00 | 0.00 | 82 | 1016.0 | |
| 20260506220353 | -17 | 0.0 | 0.0 | 0.00 | 0.00 | 0.00 | |||
| 20260506214906 | 12 | 4.8 | 0.0 | 0.00 | 0.00 | 0.00 | 77 | 1016.0 | |
| 20260506213353 | 12 | 4.8 | 0.0 | 0.00 | 0.00 | 0.00 | 77 | 1016.0 | |
| 20260506211847 | 12 | 4.8 | 0.0 | 0.00 | 0.00 | 0.00 | 77 | 1016.0 | |
| 20260506210353 | 12 | 4.8 | 0.0 | 0.00 | 0.00 | 0.00 | 77 | 1016.0 | |
| 20260506204854 | 11 | 260 | 8.0 | 0.0 | 0.00 | 0.00 | 0.00 | 77 | 1016.0 |
| 20260506203353 | 11 | 260 | 8.0 | 0.0 | 0.00 | 0.00 | 0.00 | 77 | 1016.0 |
| 20260506201847 | 11 | 260 | 8.0 | 0.0 | 0.00 | 0.00 | 0.00 | 77 | 1016.0 |
| 20260506200353 | 11 | 260 | 8.0 | 0.0 | 0.00 | 0.00 | 0.00 | 77 | 1016.0 |
| 20260506194910 | 15 | 160 | 11.3 | 0.0 | 0.00 | 0.00 | 0.00 | 63 | 1016.0 |
| 20260506193417 | 15 | 160 | 11.3 | 0.0 | 0.00 | 0.00 | 0.00 | 63 | 1016.0 |
| 20260506191854 | 15 | 160 | 11.3 | 0.0 | 0.00 | 0.00 | 0.00 | 63 | 1016.0 |
| 20260506190354 | 15 | 160 | 11.3 | 0.0 | 0.00 | 0.00 | 0.00 | 63 | 1016.0 |
| 20260506184856 | 17 | 150 | 14.5 | 0.0 | 0.00 | 0.00 | 0.00 | 56 | 1015.0 |
| 20260506183353 | 17 | 150 | 14.5 | 0.0 | 0.00 | 0.00 | 0.00 | 56 | 1015.0 |
| 20260506181854 | 17 | 150 | 14.5 | 0.0 | 0.00 | 0.00 | 0.00 | 56 | 1015.0 |
| 20260506180354 | -17 | 0.0 | 0.0 | 0.00 | 0.00 | 0.00 | |||
| 20260506174854 | 20 | 150 | 17.7 | 0.0 | 0.00 | 0.00 | 0.00 | 46 | 1014.0 |
| 20260506173353 | 20 | 150 | 17.7 | 0.0 | 0.00 | 0.00 | 0.00 | 46 | 1014.0 |
| 20260506171854 | 20 | 150 | 17.7 | 0.0 | 0.00 | 0.00 | 0.00 | 46 | 1014.0 |
| 20260506170353 | 20 | 150 | 17.7 | 0.0 | 0.00 | 0.00 | 0.00 | 46 | 1014.0 |
| 20260506164853 | 22 | 170 | 14.5 | 0.0 | 0.00 | 0.00 | 0.00 | 41 | 1014.0 |
| 20260506163353 | 22 | 170 | 14.5 | 0.0 | 0.00 | 0.00 | 0.00 | 41 | 1014.0 |
| 20260506161854 | 22 | 170 | 14.5 | 0.0 | 0.00 | 0.00 | 0.00 | 41 | 1014.0 |
| 20260506160353 | 22 | 170 | 14.5 | 0.0 | 0.00 | 0.00 | 0.00 | 41 | 1014.0 |
| 20260506154854 | 22 | 170 | 22.5 | 0.0 | 0.00 | 0.00 | 0.00 | 38 | 1015.0 |
| 20260506153353 | 22 | 170 | 22.5 | 0.0 | 0.00 | 0.00 | 0.00 | 38 | 1015.0 |
| 20260506151853 | 22 | 170 | 22.5 | 0.0 | 0.00 | 0.00 | 0.00 | 38 | 1015.0 |
| 20260506150359 | 22 | 170 | 22.5 | 0.0 | 0.00 | 0.00 | 0.00 | 38 | 1015.0 |
| 20260506144853 | 22 | 200 | 17.7 | 0.0 | 0.00 | 0.00 | 0.00 | 38 | 1015.0 |
| 20260506143405 | 22 | 200 | 17.7 | 0.0 | 0.00 | 0.00 | 0.00 | 38 | 1015.0 |
| 20260506141853 | 22 | 200 | 17.7 | 0.0 | 0.00 | 0.00 | 0.00 | 38 | 1015.0 |
| 20260506140515 | -17 | 0.0 | 0.0 | 0.00 | 0.00 | 0.00 | |||
| 20260506134918 | 22 | 150 | 22.5 | 0.0 | 0.00 | 0.00 | 0.00 | 38 | 1015.0 |
| 20260506133353 | 22 | 150 | 22.5 | 0.0 | 0.00 | 0.00 | 0.00 | 38 | 1015.0 |
| 20260506131850 | 22 | 150 | 22.5 | 0.0 | 0.00 | 0.00 | 0.00 | 38 | 1015.0 |
| 20260506130402 | 22 | 150 | 22.5 | 0.0 | 0.00 | 0.00 | 0.00 | 38 | 1015.0 |
| 20260506124854 | 22 | 170 | 17.7 | 0.0 | 0.00 | 0.00 | 0.00 | 38 | 1015.0 |
| 20260506123353 | 22 | 170 | 17.7 | 0.0 | 0.00 | 0.00 | 0.00 | 38 | 1015.0 |
| 20260506121854 | 22 | 170 | 17.7 | 0.0 | 0.00 | 0.00 | 0.00 | 38 | 1015.0 |
| 20260506120353 | 22 | 170 | 17.7 | 0.0 | 0.00 | 0.00 | 0.00 | 38 | 1015.0 |
| 20260506114853 | 22 | 170 | 17.7 | 0.0 | 0.00 | 0.00 | 0.00 | 41 | 1015.0 |
| 20260506113354 | 22 | 170 | 17.7 | 0.0 | 0.00 | 0.00 | 0.00 | 41 | 1015.0 |
| 20260506111853 | 22 | 170 | 17.7 | 0.0 | 0.00 | 0.00 | 0.00 | 41 | 1015.0 |
| 20260506110353 | 22 | 170 | 17.7 | 0.0 | 0.00 | 0.00 | 0.00 | 41 | 1015.0 |
| 20260506104853 | 22 | 190 | 17.7 | 0.0 | 0.00 | 0.00 | 0.00 | 38 | 1016.0 |
| 20260506103354 | 22 | 190 | 17.7 | 0.0 | 0.00 | 0.00 | 0.00 | 38 | 1016.0 |
| 20260506101854 | 22 | 190 | 17.7 | 0.0 | 0.00 | 0.00 | 0.00 | 38 | 1016.0 |
| 20260506100354 | 22 | 190 | 17.7 | 0.0 | 0.00 | 0.00 | 0.00 | 38 | 1016.0 |
| 20260506094854 | 21 | 170 | 14.5 | 0.0 | 0.00 | 0.00 | 0.00 | 43 | 1016.0 |
| 20260506093353 | 21 | 170 | 14.5 | 0.0 | 0.00 | 0.00 | 0.00 | 43 | 1016.0 |
| 20260506091853 | 21 | 170 | 14.5 | 0.0 | 0.00 | 0.00 | 0.00 | 43 | 1016.0 |
| 20260506090353 | 21 | 170 | 14.5 | 0.0 | 0.00 | 0.00 | 0.00 | 43 | 1016.0 |
| 20260506084854 | 20 | 190 | 14.5 | 0.0 | 0.00 | 0.00 | 0.00 | 40 | 1016.0 |
| 20260506083353 | 20 | 190 | 14.5 | 0.0 | 0.00 | 0.00 | 0.00 | 40 | 1016.0 |
| 20260506081850 | 20 | 190 | 14.5 | 0.0 | 0.00 | 0.00 | 0.00 | 40 | 1016.0 |
| 20260506080354 | 20 | 190 | 14.5 | 0.0 | 0.00 | 0.00 | 0.00 | 40 | 1016.0 |
| 20260506073354 | 17 | 210 | 14.5 | 0.0 | 0.00 | 0.00 | 0.00 | 52 | 1016.0 |
| 20260506071853 | 17 | 210 | 14.5 | 0.0 | 0.00 | 0.00 | 0.00 | 52 | 1016.0 |
| 20260506070353 | 17 | 210 | 14.5 | 0.0 | 0.00 | 0.00 | 0.00 | 52 | 1016.0 |